sensor_id;sensor_type;location;lat;lon;timestamp;temperature;humidity
5278;DHT22;2662;51.194;6.614;2023-03-30T00:01:47;13.10;99.90
5278;DHT22;2662;51.194;6.614;2023-03-30T00:04:14;13.00;99.90
5278;DHT22;2662;51.194;6.614;2023-03-30T00:06:44;13.00;99.90
5278;DHT22;2662;51.194;6.614;2023-03-30T00:09:10;13.00;99.90
5278;DHT22;2662;51.194;6.614;2023-03-30T00:11:37;13.00;99.90
5278;DHT22;2662;51.194;6.614;2023-03-30T00:14:04;13.00;99.90
5278;DHT22;2662;51.194;6.614;2023-03-30T00:16:31;13.00;99.90
5278;DHT22;2662;51.194;6.614;2023-03-30T00:18:57;13.00;99.90
5278;DHT22;2662;51.194;6.614;2023-03-30T00:21:24;13.00;99.90
5278;DHT22;2662;51.194;6.614;2023-03-30T00:23:53;12.90;99.90
5278;DHT22;2662;51.194;6.614;2023-03-30T00:26:20;12.90;99.90
5278;DHT22;2662;51.194;6.614;2023-03-30T00:28:47;12.90;99.90
5278;DHT22;2662;51.194;6.614;2023-03-30T00:31:14;12.80;99.90
5278;DHT22;2662;51.194;6.614;2023-03-30T00:33:41;12.80;99.90
5278;DHT22;2662;51.194;6.614;2023-03-30T00:36:08;12.70;99.90
5278;DHT22;2662;51.194;6.614;2023-03-30T00:38:35;12.70;99.90
5278;DHT22;2662;51.194;6.614;2023-03-30T00:41:03;12.70;99.90
5278;DHT22;2662;51.194;6.614;2023-03-30T00:43:31;12.60;99.90
5278;DHT22;2662;51.194;6.614;2023-03-30T00:45:58;12.70;99.90
5278;DHT22;2662;51.194;6.614;2023-03-30T00:48:26;12.70;99.90
5278;DHT22;2662;51.194;6.614;2023-03-30T00:50:56;12.70;99.90
5278;DHT22;2662;51.194;6.614;2023-03-30T00:53:26;12.70;99.90
5278;DHT22;2662;51.194;6.614;2023-03-30T00:55:55;12.70;99.90
5278;DHT22;2662;51.194;6.614;2023-03-30T00:58:24;12.70;99.90
5278;DHT22;2662;51.194;6.614;2023-03-30T01:00:51;12.70;99.90
5278;DHT22;2662;51.194;6.614;2023-03-30T01:03:20;12.70;99.90
5278;DHT22;2662;51.194;6.614;2023-03-30T01:05:50;12.80;99.90
5278;DHT22;2662;51.194;6.614;2023-03-30T01:08:19;12.80;99.90
5278;DHT22;2662;51.194;6.614;2023-03-30T01:10:49;12.80;99.90
5278;DHT22;2662;51.194;6.614;2023-03-30T01:13:16;12.80;99.90
5278;DHT22;2662;51.194;6.614;2023-03-30T01:15:58;12.90;99.90
5278;DHT22;2662;51.194;6.614;2023-03-30T01:18:39;12.90;99.90
5278;DHT22;2662;51.194;6.614;2023-03-30T01:21:40;13.00;99.90
5278;DHT22;2662;51.194;6.614;2023-03-30T01:27:29;13.00;99.90
5278;DHT22;2662;51.194;6.614;2023-03-30T01:30:21;13.10;99.90
5278;DHT22;2662;51.194;6.614;2023-03-30T01:33:32;13.10;99.90
5278;DHT22;2662;51.194;6.614;2023-03-30T01:36:35;13.20;99.90
5278;DHT22;2662;51.194;6.614;2023-03-30T01:39:24;13.20;99.90
5278;DHT22;2662;51.194;6.614;2023-03-30T01:41:58;13.30;99.90
5278;DHT22;2662;51.194;6.614;2023-03-30T01:44:35;13.30;99.90
5278;DHT22;2662;51.194;6.614;2023-03-30T01:47:10;13.30;99.90
5278;DHT22;2662;51.194;6.614;2023-03-30T01:49:44;13.30;99.90
5278;DHT22;2662;51.194;6.614;2023-03-30T01:52:15;13.30;99.90
5278;DHT22;2662;51.194;6.614;2023-03-30T01:54:48;13.40;99.90
5278;DHT22;2662;51.194;6.614;2023-03-30T01:57:18;13.50;99.90
5278;DHT22;2662;51.194;6.614;2023-03-30T01:59:52;13.50;99.90
5278;DHT22;2662;51.194;6.614;2023-03-30T02:02:22;13.60;99.90
5278;DHT22;2662;51.194;6.614;2023-03-30T02:04:51;13.60;99.90
5278;DHT22;2662;51.194;6.614;2023-03-30T02:07:21;13.60;99.90
5278;DHT22;2662;51.194;6.614;2023-03-30T02:09:53;13.70;99.90
5278;DHT22;2662;51.194;6.614;2023-03-30T02:12:22;13.80;99.90
5278;DHT22;2662;51.194;6.614;2023-03-30T02:14:50;13.80;99.90
5278;DHT22;2662;51.194;6.614;2023-03-30T02:17:21;14.00;99.90
5278;DHT22;2662;51.194;6.614;2023-03-30T02:19:49;14.00;99.90
5278;DHT22;2662;51.194;6.614;2023-03-30T02:22:17;14.20;99.90
5278;DHT22;2662;51.194;6.614;2023-03-30T02:24:47;14.20;99.90
5278;DHT22;2662;51.194;6.614;2023-03-30T02:27:15;14.20;99.90
5278;DHT22;2662;51.194;6.614;2023-03-30T02:29:43;14.20;99.90
5278;DHT22;2662;51.194;6.614;2023-03-30T02:32:16;14.20;99.90
5278;DHT22;2662;51.194;6.614;2023-03-30T02:38:10;14.40;99.90
5278;DHT22;2662;51.194;6.614;2023-03-30T02:40:45;14.60;99.90
5278;DHT22;2662;51.194;6.614;2023-03-30T02:43:34;14.70;99.90
5278;DHT22;2662;51.194;6.614;2023-03-30T02:46:14;14.70;99.90
5278;DHT22;2662;51.194;6.614;2023-03-30T02:48:54;14.80;99.90
5278;DHT22;2662;51.194;6.614;2023-03-30T02:51:33;14.90;99.90
5278;DHT22;2662;51.194;6.614;2023-03-30T02:54:10;14.90;99.90
5278;DHT22;2662;51.194;6.614;2023-03-30T02:56:43;15.00;99.90
5278;DHT22;2662;51.194;6.614;2023-03-30T02:59:17;15.10;99.90
5278;DHT22;2662;51.194;6.614;2023-03-30T03:01:50;15.20;99.90
5278;DHT22;2662;51.194;6.614;2023-03-30T03:04:18;15.30;99.90
5278;DHT22;2662;51.194;6.614;2023-03-30T03:06:47;15.40;99.90
5278;DHT22;2662;51.194;6.614;2023-03-30T03:09:17;15.50;99.90
5278;DHT22;2662;51.194;6.614;2023-03-30T03:11:44;15.60;99.90
5278;DHT22;2662;51.194;6.614;2023-03-30T03:14:12;15.60;99.90
5278;DHT22;2662;51.194;6.614;2023-03-30T03:16:39;15.60;99.90
5278;DHT22;2662;51.194;6.614;2023-03-30T03:19:06;15.60;99.90
5278;DHT22;2662;51.194;6.614;2023-03-30T03:21:34;15.60;99.90
5278;DHT22;2662;51.194;6.614;2023-03-30T03:24:01;15.60;99.90
5278;DHT22;2662;51.194;6.614;2023-03-30T03:26:28;15.60;99.90
5278;DHT22;2662;51.194;6.614;2023-03-30T03:28:55;15.60;99.90
5278;DHT22;2662;51.194;6.614;2023-03-30T03:31:23;15.70;99.90
5278;DHT22;2662;51.194;6.614;2023-03-30T03:33:51;15.70;99.90
5278;DHT22;2662;51.194;6.614;2023-03-30T03:36:18;15.70;99.90
5278;DHT22;2662;51.194;6.614;2023-03-30T03:38:45;15.80;99.90
5278;DHT22;2662;51.194;6.614;2023-03-30T03:41:11;15.90;99.90
5278;DHT22;2662;51.194;6.614;2023-03-30T03:43:38;15.80;99.90
5278;DHT22;2662;51.194;6.614;2023-03-30T03:46:05;15.80;99.90
5278;DHT22;2662;51.194;6.614;2023-03-30T03:48:33;15.80;99.90
5278;DHT22;2662;51.194;6.614;2023-03-30T03:50:59;15.90;99.90
5278;DHT22;2662;51.194;6.614;2023-03-30T03:53:27;15.90;99.90
5278;DHT22;2662;51.194;6.614;2023-03-30T03:55:54;15.90;99.90
5278;DHT22;2662;51.194;6.614;2023-03-30T03:58:21;15.90;99.90
5278;DHT22;2662;51.194;6.614;2023-03-30T04:00:48;15.90;99.90
5278;DHT22;2662;51.194;6.614;2023-03-30T04:03:15;15.90;99.90
5278;DHT22;2662;51.194;6.614;2023-03-30T04:05:43;15.90;99.90
5278;DHT22;2662;51.194;6.614;2023-03-30T04:08:10;15.90;99.90
5278;DHT22;2662;51.194;6.614;2023-03-30T04:10:38;15.90;99.90
5278;DHT22;2662;51.194;6.614;2023-03-30T04:13:05;15.90;99.90
5278;DHT22;2662;51.194;6.614;2023-03-30T04:15:32;15.80;99.90
5278;DHT22;2662;51.194;6.614;2023-03-30T04:17:59;15.80;99.90
5278;DHT22;2662;51.194;6.614;2023-03-30T04:20:27;15.80;99.90
5278;DHT22;2662;51.194;6.614;2023-03-30T04:22:55;15.70;99.90
5278;DHT22;2662;51.194;6.614;2023-03-30T04:25:23;15.70;99.90
5278;DHT22;2662;51.194;6.614;2023-03-30T04:27:51;15.70;99.90
5278;DHT22;2662;51.194;6.614;2023-03-30T04:30:19;15.60;99.90
5278;DHT22;2662;51.194;6.614;2023-03-30T04:32:47;15.60;99.90
5278;DHT22;2662;51.194;6.614;2023-03-30T04:35:19;15.60;99.90
5278;DHT22;2662;51.194;6.614;2023-03-30T04:37:46;15.60;99.90
5278;DHT22;2662;51.194;6.614;2023-03-30T04:40:18;15.70;99.90
5278;DHT22;2662;51.194;6.614;2023-03-30T04:42:44;15.70;99.90
5278;DHT22;2662;51.194;6.614;2023-03-30T04:45:15;15.70;99.90
5278;DHT22;2662;51.194;6.614;2023-03-30T04:47:42;15.70;99.90
5278;DHT22;2662;51.194;6.614;2023-03-30T04:50:09;15.70;99.90
5278;DHT22;2662;51.194;6.614;2023-03-30T04:52:36;15.70;99.90
5278;DHT22;2662;51.194;6.614;2023-03-30T04:55:03;15.70;99.90
5278;DHT22;2662;51.194;6.614;2023-03-30T04:57:31;15.80;99.90
5278;DHT22;2662;51.194;6.614;2023-03-30T04:59:58;15.80;99.90
5278;DHT22;2662;51.194;6.614;2023-03-30T05:02:25;15.90;99.90
5278;DHT22;2662;51.194;6.614;2023-03-30T05:04:52;15.90;99.90
5278;DHT22;2662;51.194;6.614;2023-03-30T05:07:18;15.90;99.90
5278;DHT22;2662;51.194;6.614;2023-03-30T05:09:46;15.90;99.90
5278;DHT22;2662;51.194;6.614;2023-03-30T05:12:14;15.90;99.90
5278;DHT22;2662;51.194;6.614;2023-03-30T05:14:42;16.00;99.90
5278;DHT22;2662;51.194;6.614;2023-03-30T05:17:08;15.90;99.90
5278;DHT22;2662;51.194;6.614;2023-03-30T05:19:36;15.90;99.90
5278;DHT22;2662;51.194;6.614;2023-03-30T05:22:02;15.90;99.90
5278;DHT22;2662;51.194;6.614;2023-03-30T05:24:29;15.90;99.90
5278;DHT22;2662;51.194;6.614;2023-03-30T05:26:56;15.80;99.90
5278;DHT22;2662;51.194;6.614;2023-03-30T05:29:22;15.80;99.90
5278;DHT22;2662;51.194;6.614;2023-03-30T05:31:50;15.80;99.90
5278;DHT22;2662;51.194;6.614;2023-03-30T05:34:17;15.90;99.90
5278;DHT22;2662;51.194;6.614;2023-03-30T05:36:44;15.90;99.90
5278;DHT22;2662;51.194;6.614;2023-03-30T05:39:11;15.90;99.90
5278;DHT22;2662;51.194;6.614;2023-03-30T05:41:37;15.90;99.90
5278;DHT22;2662;51.194;6.614;2023-03-30T05:44:04;15.90;99.90
5278;DHT22;2662;51.194;6.614;2023-03-30T05:46:31;15.90;99.90
5278;DHT22;2662;51.194;6.614;2023-03-30T05:48:59;15.80;99.90
5278;DHT22;2662;51.194;6.614;2023-03-30T05:51:26;15.80;99.90
5278;DHT22;2662;51.194;6.614;2023-03-30T05:53:53;15.80;99.90
5278;DHT22;2662;51.194;6.614;2023-03-30T05:56:19;15.80;99.90
5278;DHT22;2662;51.194;6.614;2023-03-30T05:58:47;15.80;99.90
5278;DHT22;2662;51.194;6.614;2023-03-30T06:01:14;15.90;99.90
5278;DHT22;2662;51.194;6.614;2023-03-30T06:03:41;15.90;99.90
5278;DHT22;2662;51.194;6.614;2023-03-30T06:06:09;15.90;99.90
5278;DHT22;2662;51.194;6.614;2023-03-30T06:08:36;15.90;99.90
5278;DHT22;2662;51.194;6.614;2023-03-30T06:11:03;15.90;99.90
5278;DHT22;2662;51.194;6.614;2023-03-30T06:13:31;15.80;99.90
5278;DHT22;2662;51.194;6.614;2023-03-30T06:15:57;15.80;99.90
5278;DHT22;2662;51.194;6.614;2023-03-30T06:18:24;15.70;99.90
5278;DHT22;2662;51.194;6.614;2023-03-30T06:20:51;15.70;99.90
5278;DHT22;2662;51.194;6.614;2023-03-30T06:23:19;15.60;99.90
5278;DHT22;2662;51.194;6.614;2023-03-30T06:25:47;15.60;99.90
5278;DHT22;2662;51.194;6.614;2023-03-30T06:28:17;15.60;99.90
5278;DHT22;2662;51.194;6.614;2023-03-30T06:30:44;15.70;99.90
5278;DHT22;2662;51.194;6.614;2023-03-30T06:33:13;15.80;99.90
5278;DHT22;2662;51.194;6.614;2023-03-30T06:35:44;16.50;99.90
5278;DHT22;2662;51.194;6.614;2023-03-30T06:38:11;16.90;99.90
5278;DHT22;2662;51.194;6.614;2023-03-30T06:40:39;16.90;99.90
5278;DHT22;2662;51.194;6.614;2023-03-30T06:43:07;16.60;99.90
5278;DHT22;2662;51.194;6.614;2023-03-30T06:45:33;16.50;99.90
5278;DHT22;2662;51.194;6.614;2023-03-30T06:48:00;16.40;99.90
5278;DHT22;2662;51.194;6.614;2023-03-30T06:50:27;16.30;99.90
5278;DHT22;2662;51.194;6.614;2023-03-30T06:52:54;16.30;99.90
5278;DHT22;2662;51.194;6.614;2023-03-30T06:55:21;16.30;99.90
5278;DHT22;2662;51.194;6.614;2023-03-30T06:57:49;16.40;99.90
5278;DHT22;2662;51.194;6.614;2023-03-30T07:00:16;16.40;99.90
5278;DHT22;2662;51.194;6.614;2023-03-30T07:02:43;16.50;99.90
5278;DHT22;2662;51.194;6.614;2023-03-30T07:05:10;16.50;99.90
5278;DHT22;2662;51.194;6.614;2023-03-30T07:07:37;16.50;99.90
5278;DHT22;2662;51.194;6.614;2023-03-30T07:10:06;16.40;99.90
5278;DHT22;2662;51.194;6.614;2023-03-30T07:12:34;16.40;99.90
5278;DHT22;2662;51.194;6.614;2023-03-30T07:15:03;16.40;99.90
5278;DHT22;2662;51.194;6.614;2023-03-30T07:17:31;16.30;99.90
5278;DHT22;2662;51.194;6.614;2023-03-30T07:19:58;16.20;99.90
5278;DHT22;2662;51.194;6.614;2023-03-30T07:22:25;16.10;99.90
5278;DHT22;2662;51.194;6.614;2023-03-30T07:24:52;16.00;99.90
5278;DHT22;2662;51.194;6.614;2023-03-30T07:27:19;16.00;99.90
5278;DHT22;2662;51.194;6.614;2023-03-30T07:29:48;15.90;99.90
5278;DHT22;2662;51.194;6.614;2023-03-30T07:32:17;15.90;99.90
5278;DHT22;2662;51.194;6.614;2023-03-30T07:34:44;15.80;99.90
5278;DHT22;2662;51.194;6.614;2023-03-30T07:37:11;15.60;99.90
5278;DHT22;2662;51.194;6.614;2023-03-30T07:39:38;15.60;99.90
5278;DHT22;2662;51.194;6.614;2023-03-30T07:42:05;15.50;99.90
5278;DHT22;2662;51.194;6.614;2023-03-30T07:44:32;15.40;99.90
5278;DHT22;2662;51.194;6.614;2023-03-30T07:46:59;15.40;99.90
5278;DHT22;2662;51.194;6.614;2023-03-30T07:49:30;15.30;99.90
5278;DHT22;2662;51.194;6.614;2023-03-30T07:51:57;15.10;99.90
5278;DHT22;2662;51.194;6.614;2023-03-30T07:54:23;14.90;99.90
5278;DHT22;2662;51.194;6.614;2023-03-30T07:56:50;14.90;99.90
5278;DHT22;2662;51.194;6.614;2023-03-30T07:59:17;14.80;99.90
5278;DHT22;2662;51.194;6.614;2023-03-30T08:01:44;14.70;99.90
5278;DHT22;2662;51.194;6.614;2023-03-30T08:04:12;14.80;99.90
5278;DHT22;2662;51.194;6.614;2023-03-30T08:06:40;14.80;99.90
5278;DHT22;2662;51.194;6.614;2023-03-30T08:09:07;14.70;99.90
5278;DHT22;2662;51.194;6.614;2023-03-30T08:11:35;14.70;99.90
5278;DHT22;2662;51.194;6.614;2023-03-30T08:14:02;14.90;99.90
5278;DHT22;2662;51.194;6.614;2023-03-30T08:16:29;15.00;99.90
5278;DHT22;2662;51.194;6.614;2023-03-30T08:18:56;15.30;99.90
5278;DHT22;2662;51.194;6.614;2023-03-30T08:21:23;15.40;99.90
5278;DHT22;2662;51.194;6.614;2023-03-30T08:23:53;15.40;99.90
5278;DHT22;2662;51.194;6.614;2023-03-30T08:26:20;15.50;99.90
5278;DHT22;2662;51.194;6.614;2023-03-30T08:28:47;15.90;99.90
5278;DHT22;2662;51.194;6.614;2023-03-30T08:31:14;17.20;99.90
5278;DHT22;2662;51.194;6.614;2023-03-30T08:33:42;18.40;99.90
5278;DHT22;2662;51.194;6.614;2023-03-30T08:36:09;18.90;99.90
5278;DHT22;2662;51.194;6.614;2023-03-30T08:38:37;20.00;99.90
5278;DHT22;2662;51.194;6.614;2023-03-30T08:41:28;21.60;99.90
5278;DHT22;2662;51.194;6.614;2023-03-30T08:43:57;23.00;99.90
5278;DHT22;2662;51.194;6.614;2023-03-30T08:46:26;23.00;99.90
5278;DHT22;2662;51.194;6.614;2023-03-30T08:48:54;23.30;99.90
5278;DHT22;2662;51.194;6.614;2023-03-30T08:51:27;23.80;99.90
5278;DHT22;2662;51.194;6.614;2023-03-30T08:53:55;22.70;99.90
5278;DHT22;2662;51.194;6.614;2023-03-30T08:56:26;22.30;99.90
5278;DHT22;2662;51.194;6.614;2023-03-30T08:59:02;22.60;99.90
5278;DHT22;2662;51.194;6.614;2023-03-30T09:01:32;22.20;99.90
5278;DHT22;2662;51.194;6.614;2023-03-30T09:04:11;21.30;99.90
5278;DHT22;2662;51.194;6.614;2023-03-30T09:06:46;20.40;99.90
5278;DHT22;2662;51.194;6.614;2023-03-30T09:09:17;19.40;99.90
5278;DHT22;2662;51.194;6.614;2023-03-30T09:11:47;18.50;99.90
5278;DHT22;2662;51.194;6.614;2023-03-30T09:14:28;17.60;99.90
5278;DHT22;2662;51.194;6.614;2023-03-30T09:17:04;16.60;99.90
5278;DHT22;2662;51.194;6.614;2023-03-30T09:19:36;15.70;99.90
5278;DHT22;2662;51.194;6.614;2023-03-30T09:22:05;15.20;99.90
5278;DHT22;2662;51.194;6.614;2023-03-30T09:24:33;15.10;99.90
5278;DHT22;2662;51.194;6.614;2023-03-30T09:27:05;15.00;99.90
5278;DHT22;2662;51.194;6.614;2023-03-30T09:29:40;15.10;99.90
5278;DHT22;2662;51.194;6.614;2023-03-30T09:32:12;15.30;99.90
5278;DHT22;2662;51.194;6.614;2023-03-30T09:34:45;15.20;99.90
5278;DHT22;2662;51.194;6.614;2023-03-30T09:37:13;15.10;99.90
5278;DHT22;2662;51.194;6.614;2023-03-30T09:39:43;15.00;99.90
5278;DHT22;2662;51.194;6.614;2023-03-30T09:42:18;14.90;99.90
5278;DHT22;2662;51.194;6.614;2023-03-30T09:44:50;14.70;99.90
5278;DHT22;2662;51.194;6.614;2023-03-30T09:47:23;14.70;99.90
5278;DHT22;2662;51.194;6.614;2023-03-30T09:49:55;14.50;99.90
5278;DHT22;2662;51.194;6.614;2023-03-30T09:52:24;14.40;99.90
5278;DHT22;2662;51.194;6.614;2023-03-30T09:54:51;14.40;99.90
5278;DHT22;2662;51.194;6.614;2023-03-30T09:57:25;14.30;99.90
5278;DHT22;2662;51.194;6.614;2023-03-30T09:59:52;14.30;99.90
5278;DHT22;2662;51.194;6.614;2023-03-30T10:02:22;14.30;99.90
5278;DHT22;2662;51.194;6.614;2023-03-30T10:05:03;14.30;99.90
5278;DHT22;2662;51.194;6.614;2023-03-30T10:07:33;14.30;99.90
5278;DHT22;2662;51.194;6.614;2023-03-30T10:10:12;14.40;99.90
5278;DHT22;2662;51.194;6.614;2023-03-30T10:12:40;14.60;99.90
5278;DHT22;2662;51.194;6.614;2023-03-30T10:15:14;14.70;99.90
5278;DHT22;2662;51.194;6.614;2023-03-30T10:17:41;14.80;99.90
5278;DHT22;2662;51.194;6.614;2023-03-30T10:20:25;14.90;99.90
5278;DHT22;2662;51.194;6.614;2023-03-30T10:22:53;14.90;99.90
5278;DHT22;2662;51.194;6.614;2023-03-30T10:25:22;15.00;99.90
5278;DHT22;2662;51.194;6.614;2023-03-30T10:27:55;15.00;99.90
5278;DHT22;2662;51.194;6.614;2023-03-30T10:30:24;15.10;99.90
5278;DHT22;2662;51.194;6.614;2023-03-30T10:32:55;15.50;99.90
5278;DHT22;2662;51.194;6.614;2023-03-30T10:35:24;16.40;99.90
5278;DHT22;2662;51.194;6.614;2023-03-30T10:37:54;17.00;99.90
5278;DHT22;2662;51.194;6.614;2023-03-30T10:40:24;17.50;99.90
5278;DHT22;2662;51.194;6.614;2023-03-30T10:42:55;17.60;99.90
5278;DHT22;2662;51.194;6.614;2023-03-30T10:45:27;17.80;99.90
5278;DHT22;2662;51.194;6.614;2023-03-30T10:48:28;18.00;99.90
5278;DHT22;2662;51.194;6.614;2023-03-30T10:51:05;17.60;99.90
5278;DHT22;2662;51.194;6.614;2023-03-30T10:53:40;18.10;99.90
5278;DHT22;2662;51.194;6.614;2023-03-30T10:56:22;18.10;99.90
5278;DHT22;2662;51.194;6.614;2023-03-30T10:59:12;18.00;99.90
5278;DHT22;2662;51.194;6.614;2023-03-30T11:01:52;17.70;99.90
5278;DHT22;2662;51.194;6.614;2023-03-30T11:04:25;17.40;99.90
5278;DHT22;2662;51.194;6.614;2023-03-30T11:06:55;17.40;99.90
5278;DHT22;2662;51.194;6.614;2023-03-30T11:09:27;17.40;99.90
5278;DHT22;2662;51.194;6.614;2023-03-30T11:11:57;17.20;99.90
5278;DHT22;2662;51.194;6.614;2023-03-30T11:14:36;17.30;99.90
5278;DHT22;2662;51.194;6.614;2023-03-30T11:17:09;17.50;99.90
5278;DHT22;2662;51.194;6.614;2023-03-30T11:19:41;17.90;99.90
5278;DHT22;2662;51.194;6.614;2023-03-30T11:22:23;18.00;99.90
5278;DHT22;2662;51.194;6.614;2023-03-30T11:24:53;18.40;99.90
5278;DHT22;2662;51.194;6.614;2023-03-30T11:27:25;18.70;99.90
5278;DHT22;2662;51.194;6.614;2023-03-30T11:29:59;18.80;99.90
5278;DHT22;2662;51.194;6.614;2023-03-30T11:32:31;19.00;99.90
5278;DHT22;2662;51.194;6.614;2023-03-30T11:35:09;19.00;99.90
5278;DHT22;2662;51.194;6.614;2023-03-30T11:37:42;18.90;99.90
5278;DHT22;2662;51.194;6.614;2023-03-30T11:40:15;18.70;99.90
5278;DHT22;2662;51.194;6.614;2023-03-30T11:42:42;18.60;99.90
5278;DHT22;2662;51.194;6.614;2023-03-30T11:45:18;18.50;99.90
5278;DHT22;2662;51.194;6.614;2023-03-30T11:48:03;18.50;99.90
5278;DHT22;2662;51.194;6.614;2023-03-30T11:50:40;18.70;99.90
5278;DHT22;2662;51.194;6.614;2023-03-30T11:53:16;18.70;99.90
5278;DHT22;2662;51.194;6.614;2023-03-30T11:56:06;18.70;99.90
5278;DHT22;2662;51.194;6.614;2023-03-30T11:58:36;18.20;99.90
5278;DHT22;2662;51.194;6.614;2023-03-30T12:01:27;17.60;99.90
5278;DHT22;2662;51.194;6.614;2023-03-30T12:03:58;17.00;99.90
5278;DHT22;2662;51.194;6.614;2023-03-30T12:06:31;16.90;99.90
5278;DHT22;2662;51.194;6.614;2023-03-30T12:09:17;17.00;99.90
5278;DHT22;2662;51.194;6.614;2023-03-30T12:11:50;17.40;99.90
5278;DHT22;2662;51.194;6.614;2023-03-30T12:14:43;17.40;99.90
5278;DHT22;2662;51.194;6.614;2023-03-30T12:17:23;17.30;99.90
5278;DHT22;2662;51.194;6.614;2023-03-30T12:19:56;17.20;99.90
5278;DHT22;2662;51.194;6.614;2023-03-30T12:22:29;17.20;99.90
5278;DHT22;2662;51.194;6.614;2023-03-30T12:25:01;17.20;99.90
5278;DHT22;2662;51.194;6.614;2023-03-30T12:27:33;17.20;99.90
5278;DHT22;2662;51.194;6.614;2023-03-30T12:30:12;17.30;99.90
5278;DHT22;2662;51.194;6.614;2023-03-30T12:32:56;17.30;99.90
5278;DHT22;2662;51.194;6.614;2023-03-30T12:35:52;17.10;99.90
5278;DHT22;2662;51.194;6.614;2023-03-30T12:38:21;17.10;99.90
5278;DHT22;2662;51.194;6.614;2023-03-30T12:40:54;17.10;99.90
5278;DHT22;2662;51.194;6.614;2023-03-30T12:43:27;17.30;99.90
5278;DHT22;2662;51.194;6.614;2023-03-30T12:46:01;17.40;99.90
5278;DHT22;2662;51.194;6.614;2023-03-30T12:48:37;17.40;99.90
5278;DHT22;2662;51.194;6.614;2023-03-30T12:51:15;17.40;99.90
5278;DHT22;2662;51.194;6.614;2023-03-30T12:56:45;18.10;99.90
5278;DHT22;2662;51.194;6.614;2023-03-30T12:59:29;18.30;99.90
5278;DHT22;2662;51.194;6.614;2023-03-30T13:02:14;18.50;99.90
5278;DHT22;2662;51.194;6.614;2023-03-30T13:04:46;18.50;99.90
5278;DHT22;2662;51.194;6.614;2023-03-30T13:07:16;18.90;99.90
5278;DHT22;2662;51.194;6.614;2023-03-30T13:09:54;19.00;99.90
5278;DHT22;2662;51.194;6.614;2023-03-30T13:12:35;18.70;99.90
5278;DHT22;2662;51.194;6.614;2023-03-30T13:17:55;18.20;99.90
5278;DHT22;2662;51.194;6.614;2023-03-30T13:20:29;18.10;99.90
5278;DHT22;2662;51.194;6.614;2023-03-30T13:23:25;17.90;99.90
5278;DHT22;2662;51.194;6.614;2023-03-30T13:26:01;18.40;99.90
5278;DHT22;2662;51.194;6.614;2023-03-30T13:28:58;18.70;99.90
5278;DHT22;2662;51.194;6.614;2023-03-30T13:34:48;18.40;99.90
5278;DHT22;2662;51.194;6.614;2023-03-30T13:37:23;18.20;99.90
5278;DHT22;2662;51.194;6.614;2023-03-30T13:39:57;17.90;99.90
5278;DHT22;2662;51.194;6.614;2023-03-30T13:42:38;17.90;99.90
5278;DHT22;2662;51.194;6.614;2023-03-30T13:45:18;17.80;99.90
5278;DHT22;2662;51.194;6.614;2023-03-30T13:47:56;17.60;99.90
5278;DHT22;2662;51.194;6.614;2023-03-30T13:50:26;17.30;99.90
5278;DHT22;2662;51.194;6.614;2023-03-30T13:52:57;17.50;99.90
5278;DHT22;2662;51.194;6.614;2023-03-30T13:55:28;17.80;99.90
5278;DHT22;2662;51.194;6.614;2023-03-30T13:57:58;18.00;99.90
5278;DHT22;2662;51.194;6.614;2023-03-30T14:00:34;18.20;99.90
5278;DHT22;2662;51.194;6.614;2023-03-30T14:03:28;18.40;99.90
5278;DHT22;2662;51.194;6.614;2023-03-30T14:05:58;18.40;99.90
5278;DHT22;2662;51.194;6.614;2023-03-30T14:08:29;18.30;99.90
5278;DHT22;2662;51.194;6.614;2023-03-30T14:10:58;18.10;99.90
5278;DHT22;2662;51.194;6.614;2023-03-30T14:13:26;17.80;99.90
5278;DHT22;2662;51.194;6.614;2023-03-30T14:15:53;17.60;99.90
5278;DHT22;2662;51.194;6.614;2023-03-30T14:18:22;17.20;99.90
5278;DHT22;2662;51.194;6.614;2023-03-30T14:20:51;16.90;99.90
5278;DHT22;2662;51.194;6.614;2023-03-30T14:23:25;16.70;99.90
5278;DHT22;2662;51.194;6.614;2023-03-30T14:25:58;16.40;99.90
5278;DHT22;2662;51.194;6.614;2023-03-30T14:28:27;16.50;99.90
5278;DHT22;2662;51.194;6.614;2023-03-30T14:30:56;16.80;99.90
5278;DHT22;2662;51.194;6.614;2023-03-30T14:33:24;17.10;99.90
5278;DHT22;2662;51.194;6.614;2023-03-30T14:35:53;17.10;99.90
5278;DHT22;2662;51.194;6.614;2023-03-30T14:38:23;17.40;99.90
5278;DHT22;2662;51.194;6.614;2023-03-30T14:40:52;17.50;99.90
5278;DHT22;2662;51.194;6.614;2023-03-30T14:43:22;17.70;99.90
5278;DHT22;2662;51.194;6.614;2023-03-30T14:45:50;17.80;99.90
5278;DHT22;2662;51.194;6.614;2023-03-30T14:48:24;17.80;99.90
5278;DHT22;2662;51.194;6.614;2023-03-30T14:50:52;17.80;99.90
5278;DHT22;2662;51.194;6.614;2023-03-30T14:53:22;17.80;99.90
5278;DHT22;2662;51.194;6.614;2023-03-30T14:55:52;17.80;99.90
5278;DHT22;2662;51.194;6.614;2023-03-30T14:58:23;17.90;99.90
5278;DHT22;2662;51.194;6.614;2023-03-30T15:00:54;17.90;99.90
5278;DHT22;2662;51.194;6.614;2023-03-30T15:03:24;17.90;99.90
5278;DHT22;2662;51.194;6.614;2023-03-30T15:05:51;18.10;99.90
5278;DHT22;2662;51.194;6.614;2023-03-30T15:08:20;18.20;99.90
5278;DHT22;2662;51.194;6.614;2023-03-30T15:10:51;18.10;99.90
5278;DHT22;2662;51.194;6.614;2023-03-30T15:13:25;18.00;99.90
5278;DHT22;2662;51.194;6.614;2023-03-30T15:15:53;17.90;99.90
5278;DHT22;2662;51.194;6.614;2023-03-30T15:18:23;17.70;99.90
5278;DHT22;2662;51.194;6.614;2023-03-30T15:20:51;17.50;99.90
5278;DHT22;2662;51.194;6.614;2023-03-30T15:23:18;17.10;99.90
5278;DHT22;2662;51.194;6.614;2023-03-30T15:25:46;16.60;99.90
5278;DHT22;2662;51.194;6.614;2023-03-30T15:28:15;16.40;99.90
5278;DHT22;2662;51.194;6.614;2023-03-30T15:30:48;16.20;99.90
5278;DHT22;2662;51.194;6.614;2023-03-30T15:33:21;16.10;99.90
5278;DHT22;2662;51.194;6.614;2023-03-30T15:35:48;16.00;99.90
5278;DHT22;2662;51.194;6.614;2023-03-30T15:38:17;15.90;99.90
5278;DHT22;2662;51.194;6.614;2023-03-30T15:40:44;15.90;99.90
5278;DHT22;2662;51.194;6.614;2023-03-30T15:43:13;16.10;99.90
5278;DHT22;2662;51.194;6.614;2023-03-30T15:45:42;16.10;99.90
5278;DHT22;2662;51.194;6.614;2023-03-30T15:48:15;16.20;99.90
5278;DHT22;2662;51.194;6.614;2023-03-30T15:50:45;16.20;99.90
5278;DHT22;2662;51.194;6.614;2023-03-30T15:53:17;16.00;99.90
5278;DHT22;2662;51.194;6.614;2023-03-30T15:55:48;15.80;99.90
5278;DHT22;2662;51.194;6.614;2023-03-30T15:58:19;16.00;99.90
5278;DHT22;2662;51.194;6.614;2023-03-30T16:00:49;16.30;99.90
5278;DHT22;2662;51.194;6.614;2023-03-30T16:03:31;16.30;99.90
5278;DHT22;2662;51.194;6.614;2023-03-30T16:05:58;16.20;99.90
5278;DHT22;2662;51.194;6.614;2023-03-30T16:08:24;16.20;99.90
5278;DHT22;2662;51.194;6.614;2023-03-30T16:10:51;16.10;99.90
5278;DHT22;2662;51.194;6.614;2023-03-30T16:13:18;16.10;99.90
5278;DHT22;2662;51.194;6.614;2023-03-30T16:15:45;16.00;99.90
5278;DHT22;2662;51.194;6.614;2023-03-30T16:18:12;15.90;99.90
5278;DHT22;2662;51.194;6.614;2023-03-30T16:20:40;15.90;99.90
5278;DHT22;2662;51.194;6.614;2023-03-30T16:23:07;16.00;99.90
5278;DHT22;2662;51.194;6.614;2023-03-30T16:25:33;16.00;99.90
5278;DHT22;2662;51.194;6.614;2023-03-30T16:28:00;15.80;99.90
5278;DHT22;2662;51.194;6.614;2023-03-30T16:30:29;15.70;99.90
5278;DHT22;2662;51.194;6.614;2023-03-30T16:32:58;15.50;99.90
5278;DHT22;2662;51.194;6.614;2023-03-30T16:35:25;15.40;99.90
5278;DHT22;2662;51.194;6.614;2023-03-30T16:37:53;15.30;99.90
5278;DHT22;2662;51.194;6.614;2023-03-30T16:40:27;15.30;99.90
5278;DHT22;2662;51.194;6.614;2023-03-30T16:42:54;15.20;99.90